ZRH weather

Zürich Airport
Zurich, Canton of Zurich, Switzerland

Public forecast

Using degrees Celsius for public forecast. Weather courtesy of forecast.io.

Current aviation weather report (METAR) for Zürich Airport

Retrieved 2020/04/01 11:20 UTC (0 seconds ago):

LSZH 011120Z VRB03KT CAVOK 08/M07 Q1019 NOSIG

Aviation forecast (TAF) for Zürich Airport

Retrieved 2020/04/01 09:37 UTC (2 hours ago):

TAF LSZH 010825Z 0109/0215 VRB03KT CAVOK TX11/0115Z TNM03/0205Z TX13/0215Z BECMG 0210/0213 9999 FEW050 BECMG 0212/0214 29010KT